BAW6970 EGNT-EICK
Flight info
| Callsign | BAW6970 |
|---|---|
| Flight time | N/A |
| Altitude | 38000 |
| Route | EGNT/25 GIRLI3X GIRLI P18 GASKO P16 RIBEL UP16 CROFT Y70 KOLID UL70 |
| Aircraft | A21N/M-SDE3FGHIRWY/LB1 |
Departure
| Time | N/A |
|---|---|
| Airport | Newcastle International Airport (EGNT) |
Arrival
| Time | 2026-05-04 23:49 |
|---|---|
| Airport | Cork International Airport (EICK) |
| Time | Latitude | Longitude | Altitude | Speed | Heading |
|---|---|---|---|---|---|
| 2026-05-04 23:42 | 51.72895 | -8.45988 | 6663 ft | 94 kts | 296° |
| 2026-05-04 23:42 | 51.73228 | -8.47475 | 5829 ft | 191 kts | 290° |
| 2026-05-04 23:42 | 51.73539 | -8.49452 | 6765 ft | 162 kts | 282° |
| 2026-05-04 23:43 | 51.73605 | -8.50747 | 7832 ft | 118 kts | 275° |
| 2026-05-04 23:43 | 51.73562 | -8.52548 | 7160 ft | 197 kts | 270° |
| 2026-05-04 23:43 | 51.73682 | -8.54715 | 7071 ft | 182 kts | 287° |
| 2026-05-04 23:43 | 51.74230 | -8.56433 | 6805 ft | 168 kts | 311° |
| 2026-05-04 23:44 | 51.75126 | -8.57583 | 6319 ft | 169 kts | 333° |
| 2026-05-04 23:44 | 51.76245 | -8.58136 | 5841 ft | 168 kts | 352° |
| 2026-05-04 23:44 | 51.77409 | -8.58106 | 5445 ft | 166 kts | 11° |
| 2026-05-04 23:44 | 51.78391 | -8.57272 | 5009 ft | 163 kts | 41° |
| 2026-05-04 23:45 | 51.78971 | -8.55697 | 4380 ft | 172 kts | 74° |
| 2026-05-04 23:45 | 51.78916 | -8.53779 | 3911 ft | 171 kts | 104° |
| 2026-05-04 23:45 | 51.78330 | -8.52154 | 3477 ft | 170 kts | 130° |
| 2026-05-04 23:45 | 51.77422 | -8.51078 | 3213 ft | 156 kts | 150° |
| 2026-05-04 23:46 | 51.76409 | -8.50139 | 2782 ft | 182 kts | 140° |
| 2026-05-04 23:46 | 51.75618 | -8.48760 | 3230 ft | 152 kts | 115° |
| 2026-05-04 23:46 | 51.75429 | -8.47179 | 3162 ft | 157 kts | 70° |
| 2026-05-04 23:46 | 51.76049 | -8.45644 | 3313 ft | 157 kts | 47° |
| 2026-05-04 23:47 | 51.76786 | -8.44764 | 3615 ft | 130 kts | 17° |
| 2026-05-04 23:47 | 51.77776 | -8.44843 | 2615 ft | 162 kts | 343° |
| 2026-05-04 23:47 | 51.78722 | -8.45634 | 2375 ft | 147 kts | 330° |
| 2026-05-04 23:47 | 51.79628 | -8.46389 | 1829 ft | 152 kts | 336° |
| 2026-05-04 23:48 | 51.80595 | -8.47045 | 1389 ft | 148 kts | 339° |
| 2026-05-04 23:48 | 51.81552 | -8.47597 | 937 ft | 146 kts | 340° |
| 2026-05-04 23:48 | 51.82479 | -8.48121 | 638 ft | 132 kts | 340° |
| 2026-05-04 23:48 | 51.83357 | -8.48649 | 537 ft | 138 kts | 338° |
| 2026-05-04 23:49 | 51.84214 | -8.49166 | 489 ft | 117 kts | 337° |
| 2026-05-04 23:49 | 51.84734 | -8.49470 | 495 ft | 39 kts | 341° |
| 2026-05-04 23:49 | 51.84956 | -8.49591 | 495 ft | 28 kts | 357° |
| 2026-05-04 23:49 | 51.85070 | -8.49537 | 496 ft | 9 kts | 25° |
| 2026-05-04 23:50 | 51.85112 | -8.49502 | 497 ft | 4 kts | 27° |
| 2026-05-04 23:50 | 51.85133 | -8.49475 | 497 ft | 5 kts | 56° |
| 2026-05-04 23:50 | 51.85126 | -8.49389 | 498 ft | 11 kts | 142° |
| 2026-05-04 23:50 | 51.85068 | -8.49345 | 498 ft | 9 kts | 158° |
| 2026-05-04 23:51 | 51.85050 | -8.49333 | 498 ft | 5 kts | 160° |
| 2026-05-04 23:51 | 51.85023 | -8.49318 | 498 ft | 4 kts | 160° |
| 2026-05-04 23:51 | 51.85017 | -8.49314 | 498 ft | 0 kts | 161° |
| 2026-05-04 23:52 | 51.84951 | -8.49282 | 498 ft | 7 kts | 165° |
| 2026-05-04 23:53 | 51.84887 | -8.49257 | 498 ft | 5 kts | 159° |
| 2026-05-04 23:53 | 51.84855 | -8.49220 | 498 ft | 11 kts | 105° |
| 2026-05-04 23:53 | 51.84877 | -8.49140 | 500 ft | 4 kts | 77° |
| 2026-05-04 23:53 | 51.84883 | -8.49105 | 500 ft | 0 kts | 76° |
| 2026-05-04 23:54 | 51.84887 | -8.49090 | 501 ft | 3 kts | 64° |
| 2026-05-04 23:54 | 51.84889 | -8.49085 | 501 ft | 0 kts | 67° |